sensor_id;sensor_type;location;lat;lon;timestamp;P1;durP1;ratioP1;P2;durP2;ratioP2
2474;SDS011;1248;48.694;10.160;2023-03-14T00:01:21;4.33;;;1.70;;
2474;SDS011;1248;48.694;10.160;2023-03-14T00:03:49;4.83;;;1.90;;
2474;SDS011;1248;48.694;10.160;2023-03-14T00:06:16;1.80;;;1.70;;
2474;SDS011;1248;48.694;10.160;2023-03-14T00:08:45;5.67;;;1.97;;
2474;SDS011;1248;48.694;10.160;2023-03-14T00:11:14;3.40;;;1.80;;
2474;SDS011;1248;48.694;10.160;2023-03-14T00:13:42;5.37;;;1.63;;
2474;SDS011;1248;48.694;10.160;2023-03-14T00:16:09;6.03;;;1.90;;
2474;SDS011;1248;48.694;10.160;2023-03-14T00:18:38;5.90;;;1.90;;
2474;SDS011;1248;48.694;10.160;2023-03-14T00:21:06;5.07;;;1.60;;
2474;SDS011;1248;48.694;10.160;2023-03-14T00:23:35;3.00;;;1.97;;
2474;SDS011;1248;48.694;10.160;2023-03-14T00:26:05;1.97;;;1.70;;
2474;SDS011;1248;48.694;10.160;2023-03-14T00:28:33;2.30;;;1.87;;
2474;SDS011;1248;48.694;10.160;2023-03-14T00:31:01;1.73;;;1.60;;
2474;SDS011;1248;48.694;10.160;2023-03-14T00:33:29;2.50;;;1.47;;
2474;SDS011;1248;48.694;10.160;2023-03-14T00:35:57;1.33;;;1.23;;
2474;SDS011;1248;48.694;10.160;2023-03-14T00:38:25;2.17;;;1.47;;
2474;SDS011;1248;48.694;10.160;2023-03-14T00:40:53;1.37;;;1.20;;
2474;SDS011;1248;48.694;10.160;2023-03-14T00:43:22;2.03;;;1.20;;
2474;SDS011;1248;48.694;10.160;2023-03-14T00:45:49;4.10;;;1.20;;
2474;SDS011;1248;48.694;10.160;2023-03-14T00:48:17;1.53;;;1.27;;
2474;SDS011;1248;48.694;10.160;2023-03-14T00:50:45;2.33;;;1.20;;
2474;SDS011;1248;48.694;10.160;2023-03-14T00:53:12;2.00;;;1.10;;
2474;SDS011;1248;48.694;10.160;2023-03-14T00:55:39;1.93;;;1.10;;
2474;SDS011;1248;48.694;10.160;2023-03-14T00:58:07;1.17;;;1.07;;
2474;SDS011;1248;48.694;10.160;2023-03-14T01:00:36;5.53;;;1.10;;
2474;SDS011;1248;48.694;10.160;2023-03-14T01:03:03;3.40;;;1.47;;
2474;SDS011;1248;48.694;10.160;2023-03-14T01:05:31;1.77;;;0.90;;
2474;SDS011;1248;48.694;10.160;2023-03-14T01:07:58;1.13;;;1.00;;
2474;SDS011;1248;48.694;10.160;2023-03-14T01:10:25;3.20;;;1.00;;
2474;SDS011;1248;48.694;10.160;2023-03-14T01:12:52;1.00;;;0.90;;
2474;SDS011;1248;48.694;10.160;2023-03-14T01:15:20;1.70;;;0.90;;
2474;SDS011;1248;48.694;10.160;2023-03-14T01:17:48;1.00;;;0.90;;
2474;SDS011;1248;48.694;10.160;2023-03-14T01:20:15;1.40;;;1.00;;
2474;SDS011;1248;48.694;10.160;2023-03-14T01:22:43;1.07;;;0.90;;
2474;SDS011;1248;48.694;10.160;2023-03-14T01:25:11;1.10;;;1.00;;
2474;SDS011;1248;48.694;10.160;2023-03-14T01:27:40;1.30;;;0.90;;
2474;SDS011;1248;48.694;10.160;2023-03-14T01:30:08;2.50;;;1.10;;
2474;SDS011;1248;48.694;10.160;2023-03-14T01:32:36;1.10;;;0.90;;
2474;SDS011;1248;48.694;10.160;2023-03-14T01:35:04;0.90;;;0.80;;
2474;SDS011;1248;48.694;10.160;2023-03-14T01:37:32;1.10;;;1.00;;
2474;SDS011;1248;48.694;10.160;2023-03-14T01:39:59;0.90;;;0.80;;
2474;SDS011;1248;48.694;10.160;2023-03-14T01:42:26;0.90;;;0.80;;
2474;SDS011;1248;48.694;10.160;2023-03-14T01:44:54;1.00;;;0.90;;
2474;SDS011;1248;48.694;10.160;2023-03-14T01:47:22;1.00;;;0.90;;
2474;SDS011;1248;48.694;10.160;2023-03-14T01:49:50;1.00;;;0.90;;
2474;SDS011;1248;48.694;10.160;2023-03-14T01:52:20;1.07;;;0.97;;
2474;SDS011;1248;48.694;10.160;2023-03-14T01:54:50;1.10;;;1.00;;
2474;SDS011;1248;48.694;10.160;2023-03-14T01:57:19;1.40;;;1.10;;
2474;SDS011;1248;48.694;10.160;2023-03-14T01:59:49;1.83;;;0.90;;
2474;SDS011;1248;48.694;10.160;2023-03-14T02:02:19;1.07;;;0.90;;
2474;SDS011;1248;48.694;10.160;2023-03-14T02:04:47;1.37;;;1.00;;
2474;SDS011;1248;48.694;10.160;2023-03-14T02:07:16;0.90;;;0.80;;
2474;SDS011;1248;48.694;10.160;2023-03-14T02:09:46;0.90;;;0.80;;
2474;SDS011;1248;48.694;10.160;2023-03-14T02:12:15;1.17;;;0.90;;
2474;SDS011;1248;48.694;10.160;2023-03-14T02:14:43;1.00;;;0.90;;
2474;SDS011;1248;48.694;10.160;2023-03-14T02:17:13;1.00;;;0.80;;
2474;SDS011;1248;48.694;10.160;2023-03-14T02:19:49;0.83;;;0.80;;
2474;SDS011;1248;48.694;10.160;2023-03-14T02:22:21;1.30;;;0.90;;
2474;SDS011;1248;48.694;10.160;2023-03-14T02:24:53;1.23;;;0.87;;
2474;SDS011;1248;48.694;10.160;2023-03-14T02:27:25;1.00;;;0.90;;
2474;SDS011;1248;48.694;10.160;2023-03-14T02:29:53;1.00;;;0.90;;
2474;SDS011;1248;48.694;10.160;2023-03-14T02:32:21;1.27;;;0.90;;
2474;SDS011;1248;48.694;10.160;2023-03-14T02:34:50;1.00;;;0.90;;
2474;SDS011;1248;48.694;10.160;2023-03-14T02:37:20;0.87;;;0.80;;
2474;SDS011;1248;48.694;10.160;2023-03-14T02:39:48;2.40;;;0.80;;
2474;SDS011;1248;48.694;10.160;2023-03-14T02:42:15;1.60;;;1.10;;
2474;SDS011;1248;48.694;10.160;2023-03-14T02:44:53;1.30;;;1.20;;
2474;SDS011;1248;48.694;10.160;2023-03-14T02:47:22;1.10;;;1.00;;
2474;SDS011;1248;48.694;10.160;2023-03-14T02:49:55;1.57;;;1.00;;
2474;SDS011;1248;48.694;10.160;2023-03-14T02:52:26;0.97;;;0.87;;
2474;SDS011;1248;48.694;10.160;2023-03-14T02:54:53;4.20;;;0.93;;
2474;SDS011;1248;48.694;10.160;2023-03-14T02:57:20;0.90;;;0.80;;
2474;SDS011;1248;48.694;10.160;2023-03-14T02:59:47;1.10;;;0.90;;
2474;SDS011;1248;48.694;10.160;2023-03-14T03:02:15;1.77;;;0.80;;
2474;SDS011;1248;48.694;10.160;2023-03-14T03:04:43;0.93;;;0.83;;
2474;SDS011;1248;48.694;10.160;2023-03-14T03:07:10;1.00;;;0.90;;
2474;SDS011;1248;48.694;10.160;2023-03-14T03:09:37;1.30;;;1.03;;
2474;SDS011;1248;48.694;10.160;2023-03-14T03:12:04;1.00;;;0.90;;
2474;SDS011;1248;48.694;10.160;2023-03-14T03:14:31;1.10;;;1.00;;
2474;SDS011;1248;48.694;10.160;2023-03-14T03:16:58;1.20;;;1.10;;
2474;SDS011;1248;48.694;10.160;2023-03-14T03:19:27;1.10;;;1.00;;
2474;SDS011;1248;48.694;10.160;2023-03-14T03:21:54;1.00;;;0.90;;
2474;SDS011;1248;48.694;10.160;2023-03-14T03:24:21;1.00;;;0.90;;
2474;SDS011;1248;48.694;10.160;2023-03-14T03:26:48;1.20;;;1.10;;
2474;SDS011;1248;48.694;10.160;2023-03-14T03:29:15;1.57;;;1.13;;
2474;SDS011;1248;48.694;10.160;2023-03-14T03:31:43;1.10;;;1.00;;
2474;SDS011;1248;48.694;10.160;2023-03-14T03:34:11;1.00;;;0.90;;
2474;SDS011;1248;48.694;10.160;2023-03-14T03:36:40;2.50;;;1.00;;
2474;SDS011;1248;48.694;10.160;2023-03-14T03:39:07;1.00;;;0.90;;
2474;SDS011;1248;48.694;10.160;2023-03-14T03:41:34;1.67;;;1.10;;
2474;SDS011;1248;48.694;10.160;2023-03-14T03:44:01;1.00;;;0.90;;
2474;SDS011;1248;48.694;10.160;2023-03-14T03:46:28;1.30;;;0.93;;
2474;SDS011;1248;48.694;10.160;2023-03-14T03:48:55;1.10;;;1.00;;
2474;SDS011;1248;48.694;10.160;2023-03-14T03:51:22;1.00;;;0.90;;
2474;SDS011;1248;48.694;10.160;2023-03-14T03:53:51;1.37;;;1.00;;
2474;SDS011;1248;48.694;10.160;2023-03-14T03:56:18;1.10;;;1.00;;
2474;SDS011;1248;48.694;10.160;2023-03-14T03:58:45;1.83;;;1.00;;
2474;SDS011;1248;48.694;10.160;2023-03-14T04:01:12;1.00;;;0.90;;
2474;SDS011;1248;48.694;10.160;2023-03-14T04:03:39;1.20;;;1.10;;
2474;SDS011;1248;48.694;10.160;2023-03-14T04:06:07;1.73;;;1.10;;
2474;SDS011;1248;48.694;10.160;2023-03-14T04:08:35;1.50;;;0.90;;
2474;SDS011;1248;48.694;10.160;2023-03-14T04:11:04;1.20;;;1.10;;
2474;SDS011;1248;48.694;10.160;2023-03-14T04:13:32;1.20;;;1.10;;
2474;SDS011;1248;48.694;10.160;2023-03-14T04:15:59;1.10;;;1.00;;
2474;SDS011;1248;48.694;10.160;2023-03-14T04:18:26;1.27;;;1.00;;
2474;SDS011;1248;48.694;10.160;2023-03-14T04:20:56;1.23;;;1.13;;
2474;SDS011;1248;48.694;10.160;2023-03-14T04:23:24;1.20;;;1.10;;
2474;SDS011;1248;48.694;10.160;2023-03-14T04:25:51;1.33;;;1.10;;
2474;SDS011;1248;48.694;10.160;2023-03-14T04:28:20;1.57;;;1.10;;
2474;SDS011;1248;48.694;10.160;2023-03-14T04:30:47;2.50;;;1.20;;
2474;SDS011;1248;48.694;10.160;2023-03-14T04:33:14;1.50;;;1.40;;
2474;SDS011;1248;48.694;10.160;2023-03-14T04:35:42;1.30;;;1.20;;
2474;SDS011;1248;48.694;10.160;2023-03-14T04:38:09;3.10;;;1.40;;
2474;SDS011;1248;48.694;10.160;2023-03-14T04:40:36;1.53;;;1.30;;
2474;SDS011;1248;48.694;10.160;2023-03-14T04:43:04;2.03;;;1.63;;
2474;SDS011;1248;48.694;10.160;2023-03-14T04:45:32;1.67;;;1.30;;
2474;SDS011;1248;48.694;10.160;2023-03-14T04:47:59;2.43;;;1.53;;
2474;SDS011;1248;48.694;10.160;2023-03-14T04:50:26;1.80;;;1.70;;
2474;SDS011;1248;48.694;10.160;2023-03-14T04:52:53;2.00;;;1.60;;
2474;SDS011;1248;48.694;10.160;2023-03-14T04:55:20;3.60;;;2.20;;
2474;SDS011;1248;48.694;10.160;2023-03-14T04:57:47;2.80;;;2.00;;
2474;SDS011;1248;48.694;10.160;2023-03-14T05:00:14;2.27;;;1.80;;
2474;SDS011;1248;48.694;10.160;2023-03-14T05:02:45;1.73;;;1.63;;
2474;SDS011;1248;48.694;10.160;2023-03-14T05:05:12;1.70;;;1.60;;
2474;SDS011;1248;48.694;10.160;2023-03-14T05:07:39;2.90;;;1.67;;
2474;SDS011;1248;48.694;10.160;2023-03-14T05:10:06;2.43;;;1.90;;
2474;SDS011;1248;48.694;10.160;2023-03-14T05:12:34;2.10;;;1.90;;
2474;SDS011;1248;48.694;10.160;2023-03-14T05:15:01;1.87;;;1.67;;
2474;SDS011;1248;48.694;10.160;2023-03-14T05:17:30;1.97;;;1.67;;
2474;SDS011;1248;48.694;10.160;2023-03-14T05:19:58;3.33;;;1.70;;
2474;SDS011;1248;48.694;10.160;2023-03-14T05:22:25;2.47;;;1.67;;
2474;SDS011;1248;48.694;10.160;2023-03-14T05:24:52;1.97;;;1.60;;
2474;SDS011;1248;48.694;10.160;2023-03-14T05:27:22;2.13;;;1.93;;
2474;SDS011;1248;48.694;10.160;2023-03-14T05:29:49;4.33;;;2.60;;
2474;SDS011;1248;48.694;10.160;2023-03-14T05:32:16;1.80;;;1.70;;
2474;SDS011;1248;48.694;10.160;2023-03-14T05:34:43;2.50;;;1.40;;
2474;SDS011;1248;48.694;10.160;2023-03-14T05:37:11;1.77;;;1.67;;
2474;SDS011;1248;48.694;10.160;2023-03-14T05:39:38;3.03;;;2.37;;
2474;SDS011;1248;48.694;10.160;2023-03-14T05:42:05;2.50;;;2.30;;
2474;SDS011;1248;48.694;10.160;2023-03-14T05:44:32;1.83;;;1.63;;
2474;SDS011;1248;48.694;10.160;2023-03-14T05:46:59;2.10;;;1.90;;
2474;SDS011;1248;48.694;10.160;2023-03-14T05:49:26;3.03;;;2.13;;
2474;SDS011;1248;48.694;10.160;2023-03-14T05:51:53;4.57;;;2.50;;
2474;SDS011;1248;48.694;10.160;2023-03-14T05:54:22;3.00;;;2.60;;
2474;SDS011;1248;48.694;10.160;2023-03-14T05:56:49;2.33;;;2.13;;
2474;SDS011;1248;48.694;10.160;2023-03-14T05:59:16;3.00;;;2.80;;
2474;SDS011;1248;48.694;10.160;2023-03-14T06:01:43;3.50;;;2.53;;
2474;SDS011;1248;48.694;10.160;2023-03-14T06:04:10;5.10;;;2.13;;
2474;SDS011;1248;48.694;10.160;2023-03-14T06:06:37;7.23;;;2.30;;
2474;SDS011;1248;48.694;10.160;2023-03-14T06:09:04;3.50;;;2.87;;
2474;SDS011;1248;48.694;10.160;2023-03-14T06:11:33;2.30;;;2.10;;
2474;SDS011;1248;48.694;10.160;2023-03-14T06:14:00;3.93;;;2.97;;
2474;SDS011;1248;48.694;10.160;2023-03-14T06:16:27;2.57;;;2.37;;
2474;SDS011;1248;48.694;10.160;2023-03-14T06:18:54;2.67;;;2.07;;
2474;SDS011;1248;48.694;10.160;2023-03-14T06:21:21;2.50;;;1.93;;
2474;SDS011;1248;48.694;10.160;2023-03-14T06:23:48;3.50;;;2.30;;
2474;SDS011;1248;48.694;10.160;2023-03-14T06:26:15;2.80;;;2.50;;
2474;SDS011;1248;48.694;10.160;2023-03-14T06:28:44;2.70;;;2.03;;
2474;SDS011;1248;48.694;10.160;2023-03-14T06:31:11;6.40;;;2.07;;
2474;SDS011;1248;48.694;10.160;2023-03-14T06:33:38;1.80;;;1.70;;
2474;SDS011;1248;48.694;10.160;2023-03-14T06:36:05;1.77;;;1.67;;
2474;SDS011;1248;48.694;10.160;2023-03-14T06:38:33;2.07;;;1.70;;
2474;SDS011;1248;48.694;10.160;2023-03-14T06:41:02;3.50;;;2.13;;
2474;SDS011;1248;48.694;10.160;2023-03-14T06:43:30;1.93;;;1.70;;
2474;SDS011;1248;48.694;10.160;2023-03-14T06:45:59;2.70;;;1.60;;
2474;SDS011;1248;48.694;10.160;2023-03-14T06:48:26;3.03;;;1.87;;
2474;SDS011;1248;48.694;10.160;2023-03-14T06:50:53;2.77;;;1.90;;
2474;SDS011;1248;48.694;10.160;2023-03-14T06:53:20;2.53;;;1.40;;
2474;SDS011;1248;48.694;10.160;2023-03-14T06:55:47;1.60;;;1.50;;
2474;SDS011;1248;48.694;10.160;2023-03-14T06:58:14;4.03;;;1.50;;
2474;SDS011;1248;48.694;10.160;2023-03-14T07:00:41;1.93;;;1.50;;
2474;SDS011;1248;48.694;10.160;2023-03-14T07:03:10;2.10;;;1.70;;
2474;SDS011;1248;48.694;10.160;2023-03-14T07:05:37;3.17;;;1.40;;
2474;SDS011;1248;48.694;10.160;2023-03-14T07:08:06;1.60;;;1.50;;
2474;SDS011;1248;48.694;10.160;2023-03-14T07:10:33;2.03;;;1.87;;
2474;SDS011;1248;48.694;10.160;2023-03-14T07:13:00;1.53;;;1.33;;
2474;SDS011;1248;48.694;10.160;2023-03-14T07:15:27;3.00;;;1.60;;
2474;SDS011;1248;48.694;10.160;2023-03-14T07:17:54;1.60;;;1.50;;
2474;SDS011;1248;48.694;10.160;2023-03-14T07:20:22;2.07;;;1.13;;
2474;SDS011;1248;48.694;10.160;2023-03-14T07:22:50;1.73;;;1.23;;
2474;SDS011;1248;48.694;10.160;2023-03-14T07:25:17;5.37;;;1.30;;
2474;SDS011;1248;48.694;10.160;2023-03-14T07:27:44;4.60;;;1.50;;
2474;SDS011;1248;48.694;10.160;2023-03-14T07:30:12;3.80;;;1.87;;
2474;SDS011;1248;48.694;10.160;2023-03-14T07:32:40;1.30;;;1.20;;
2474;SDS011;1248;48.694;10.160;2023-03-14T07:35:07;1.50;;;1.37;;
2474;SDS011;1248;48.694;10.160;2023-03-14T07:37:36;1.70;;;1.40;;
2474;SDS011;1248;48.694;10.160;2023-03-14T07:40:03;1.97;;;1.30;;
2474;SDS011;1248;48.694;10.160;2023-03-14T07:42:32;1.23;;;1.13;;
2474;SDS011;1248;48.694;10.160;2023-03-14T07:44:59;1.20;;;1.07;;
2474;SDS011;1248;48.694;10.160;2023-03-14T07:47:26;1.70;;;1.40;;
2474;SDS011;1248;48.694;10.160;2023-03-14T07:49:53;1.07;;;0.97;;
2474;SDS011;1248;48.694;10.160;2023-03-14T07:52:20;2.03;;;1.20;;
2474;SDS011;1248;48.694;10.160;2023-03-14T07:54:49;1.20;;;1.10;;
2474;SDS011;1248;48.694;10.160;2023-03-14T07:57:16;1.53;;;1.30;;
2474;SDS011;1248;48.694;10.160;2023-03-14T07:59:43;1.07;;;0.97;;
2474;SDS011;1248;48.694;10.160;2023-03-14T08:02:10;2.20;;;1.10;;
2474;SDS011;1248;48.694;10.160;2023-03-14T08:04:37;1.30;;;1.10;;
2474;SDS011;1248;48.694;10.160;2023-03-14T08:07:05;1.23;;;1.07;;
2474;SDS011;1248;48.694;10.160;2023-03-14T08:09:32;1.73;;;1.07;;
2474;SDS011;1248;48.694;10.160;2023-03-14T08:12:00;2.60;;;1.30;;
2474;SDS011;1248;48.694;10.160;2023-03-14T08:14:27;2.87;;;1.23;;
2474;SDS011;1248;48.694;10.160;2023-03-14T08:16:56;1.27;;;0.90;;
2474;SDS011;1248;48.694;10.160;2023-03-14T08:19:23;1.70;;;1.10;;
2474;SDS011;1248;48.694;10.160;2023-03-14T08:21:51;2.57;;;1.17;;
2474;SDS011;1248;48.694;10.160;2023-03-14T08:24:18;1.00;;;0.90;;
2474;SDS011;1248;48.694;10.160;2023-03-14T08:26:45;3.27;;;1.67;;
2474;SDS011;1248;48.694;10.160;2023-03-14T08:29:13;1.67;;;1.00;;
2474;SDS011;1248;48.694;10.160;2023-03-14T08:31:40;1.30;;;1.10;;
2474;SDS011;1248;48.694;10.160;2023-03-14T08:34:07;1.60;;;1.13;;
2474;SDS011;1248;48.694;10.160;2023-03-14T08:36:34;1.20;;;0.87;;
2474;SDS011;1248;48.694;10.160;2023-03-14T08:39:02;4.10;;;0.90;;
2474;SDS011;1248;48.694;10.160;2023-03-14T08:41:32;1.13;;;1.00;;
2474;SDS011;1248;48.694;10.160;2023-03-14T08:44:05;2.50;;;0.97;;
2474;SDS011;1248;48.694;10.160;2023-03-14T08:46:34;1.30;;;1.03;;
2474;SDS011;1248;48.694;10.160;2023-03-14T08:49:01;1.13;;;1.00;;
2474;SDS011;1248;48.694;10.160;2023-03-14T08:51:28;1.33;;;0.90;;
2474;SDS011;1248;48.694;10.160;2023-03-14T08:53:55;1.10;;;1.00;;
2474;SDS011;1248;48.694;10.160;2023-03-14T08:56:22;2.80;;;1.30;;
2474;SDS011;1248;48.694;10.160;2023-03-14T08:58:49;1.13;;;1.03;;
2474;SDS011;1248;48.694;10.160;2023-03-14T09:01:16;1.20;;;0.87;;
2474;SDS011;1248;48.694;10.160;2023-03-14T09:03:46;5.33;;;1.17;;
2474;SDS011;1248;48.694;10.160;2023-03-14T09:06:13;1.20;;;1.00;;
2474;SDS011;1248;48.694;10.160;2023-03-14T09:08:43;2.60;;;1.00;;
2474;SDS011;1248;48.694;10.160;2023-03-14T09:11:10;1.37;;;0.83;;
2474;SDS011;1248;48.694;10.160;2023-03-14T09:13:38;2.73;;;1.10;;
2474;SDS011;1248;48.694;10.160;2023-03-14T09:16:05;3.00;;;0.90;;
2474;SDS011;1248;48.694;10.160;2023-03-14T09:18:33;1.10;;;1.00;;
2474;SDS011;1248;48.694;10.160;2023-03-14T09:21:01;1.77;;;0.90;;
2474;SDS011;1248;48.694;10.160;2023-03-14T09:23:28;3.53;;;0.90;;
2474;SDS011;1248;48.694;10.160;2023-03-14T09:25:55;2.23;;;0.83;;
2474;SDS011;1248;48.694;10.160;2023-03-14T09:28:23;1.00;;;0.80;;
2474;SDS011;1248;48.694;10.160;2023-03-14T09:30:50;1.83;;;1.10;;
2474;SDS011;1248;48.694;10.160;2023-03-14T09:33:17;2.37;;;1.00;;
2474;SDS011;1248;48.694;10.160;2023-03-14T09:35:45;1.20;;;0.83;;
2474;SDS011;1248;48.694;10.160;2023-03-14T09:38:13;3.10;;;1.00;;
2474;SDS011;1248;48.694;10.160;2023-03-14T09:40:40;1.30;;;0.80;;
2474;SDS011;1248;48.694;10.160;2023-03-14T09:43:09;1.10;;;0.80;;
2474;SDS011;1248;48.694;10.160;2023-03-14T09:45:37;1.53;;;0.80;;
2474;SDS011;1248;48.694;10.160;2023-03-14T09:48:06;1.40;;;0.90;;
2474;SDS011;1248;48.694;10.160;2023-03-14T09:50:40;6.00;;;1.20;;
2474;SDS011;1248;48.694;10.160;2023-03-14T09:53:11;1.40;;;0.90;;
2474;SDS011;1248;48.694;10.160;2023-03-14T09:55:41;2.80;;;1.00;;
2474;SDS011;1248;48.694;10.160;2023-03-14T09:58:10;3.57;;;0.83;;
2474;SDS011;1248;48.694;10.160;2023-03-14T10:00:39;1.93;;;0.90;;
2474;SDS011;1248;48.694;10.160;2023-03-14T10:03:14;1.10;;;0.90;;
2474;SDS011;1248;48.694;10.160;2023-03-14T10:05:51;1.20;;;0.90;;
2474;SDS011;1248;48.694;10.160;2023-03-14T10:08:19;3.00;;;0.87;;
2474;SDS011;1248;48.694;10.160;2023-03-14T10:10:46;1.80;;;0.90;;
2474;SDS011;1248;48.694;10.160;2023-03-14T10:13:14;1.10;;;0.93;;
2474;SDS011;1248;48.694;10.160;2023-03-14T10:15:46;4.73;;;0.80;;
2474;SDS011;1248;48.694;10.160;2023-03-14T10:18:14;1.07;;;0.80;;
2474;SDS011;1248;48.694;10.160;2023-03-14T10:20:42;1.83;;;1.00;;
2474;SDS011;1248;48.694;10.160;2023-03-14T10:23:23;1.97;;;1.10;;
2474;SDS011;1248;48.694;10.160;2023-03-14T10:26:02;1.30;;;1.00;;
2474;SDS011;1248;48.694;10.160;2023-03-14T10:28:33;0.90;;;0.70;;
2474;SDS011;1248;48.694;10.160;2023-03-14T10:31:01;1.10;;;0.80;;
2474;SDS011;1248;48.694;10.160;2023-03-14T10:33:28;1.10;;;0.77;;
2474;SDS011;1248;48.694;10.160;2023-03-14T10:35:57;3.30;;;0.80;;
2474;SDS011;1248;48.694;10.160;2023-03-14T10:38:27;1.77;;;0.70;;
2474;SDS011;1248;48.694;10.160;2023-03-14T10:40:55;1.40;;;0.80;;
2474;SDS011;1248;48.694;10.160;2023-03-14T10:43:25;1.00;;;0.80;;
2474;SDS011;1248;48.694;10.160;2023-03-14T10:45:54;2.60;;;1.10;;
2474;SDS011;1248;48.694;10.160;2023-03-14T10:48:24;1.17;;;0.80;;
2474;SDS011;1248;48.694;10.160;2023-03-14T10:50:57;3.57;;;0.83;;
2474;SDS011;1248;48.694;10.160;2023-03-14T10:53:33;0.90;;;0.70;;
2474;SDS011;1248;48.694;10.160;2023-03-14T10:56:05;1.53;;;0.70;;
2474;SDS011;1248;48.694;10.160;2023-03-14T10:58:33;0.97;;;0.77;;
2474;SDS011;1248;48.694;10.160;2023-03-14T11:01:08;1.20;;;0.70;;
2474;SDS011;1248;48.694;10.160;2023-03-14T11:03:43;0.87;;;0.70;;
2474;SDS011;1248;48.694;10.160;2023-03-14T11:06:12;2.37;;;0.70;;
2474;SDS011;1248;48.694;10.160;2023-03-14T11:08:44;0.90;;;0.70;;
2474;SDS011;1248;48.694;10.160;2023-03-14T11:11:14;1.67;;;0.70;;
2474;SDS011;1248;48.694;10.160;2023-03-14T11:13:47;1.17;;;0.70;;
2474;SDS011;1248;48.694;10.160;2023-03-14T11:16:22;1.47;;;0.80;;
2474;SDS011;1248;48.694;10.160;2023-03-14T11:19:01;0.90;;;0.63;;
2474;SDS011;1248;48.694;10.160;2023-03-14T11:21:32;1.80;;;0.80;;
2474;SDS011;1248;48.694;10.160;2023-03-14T11:24:08;1.23;;;0.70;;
2474;SDS011;1248;48.694;10.160;2023-03-14T11:26:43;1.17;;;0.73;;
2474;SDS011;1248;48.694;10.160;2023-03-14T11:29:20;0.90;;;0.70;;
2474;SDS011;1248;48.694;10.160;2023-03-14T11:31:48;0.90;;;0.80;;
2474;SDS011;1248;48.694;10.160;2023-03-14T11:34:15;3.73;;;0.77;;
2474;SDS011;1248;48.694;10.160;2023-03-14T11:36:45;2.07;;;0.70;;
2474;SDS011;1248;48.694;10.160;2023-03-14T11:39:17;1.80;;;0.70;;
2474;SDS011;1248;48.694;10.160;2023-03-14T11:41:45;0.90;;;0.70;;
2474;SDS011;1248;48.694;10.160;2023-03-14T11:44:15;1.10;;;0.77;;
2474;SDS011;1248;48.694;10.160;2023-03-14T11:46:46;0.97;;;0.70;;
2474;SDS011;1248;48.694;10.160;2023-03-14T11:49:17;0.90;;;0.60;;
2474;SDS011;1248;48.694;10.160;2023-03-14T11:51:54;1.93;;;0.80;;
2474;SDS011;1248;48.694;10.160;2023-03-14T11:54:26;0.80;;;0.60;;
2474;SDS011;1248;48.694;10.160;2023-03-14T11:56:58;1.90;;;0.87;;
2474;SDS011;1248;48.694;10.160;2023-03-14T11:59:27;2.23;;;1.00;;
2474;SDS011;1248;48.694;10.160;2023-03-14T12:01:57;0.90;;;0.70;;
2474;SDS011;1248;48.694;10.160;2023-03-14T12:04:31;0.97;;;0.80;;
2474;SDS011;1248;48.694;10.160;2023-03-14T12:07:08;1.07;;;0.80;;
2474;SDS011;1248;48.694;10.160;2023-03-14T12:09:42;1.53;;;0.90;;
2474;SDS011;1248;48.694;10.160;2023-03-14T12:12:10;1.20;;;0.80;;
2474;SDS011;1248;48.694;10.160;2023-03-14T12:14:43;1.33;;;0.80;;
2474;SDS011;1248;48.694;10.160;2023-03-14T12:17:17;1.00;;;0.83;;
2474;SDS011;1248;48.694;10.160;2023-03-14T12:19:46;1.40;;;0.73;;
2474;SDS011;1248;48.694;10.160;2023-03-14T12:22:19;1.00;;;0.80;;
2474;SDS011;1248;48.694;10.160;2023-03-14T12:24:53;1.00;;;0.83;;
2474;SDS011;1248;48.694;10.160;2023-03-14T12:30:40;0.90;;;0.73;;
2474;SDS011;1248;48.694;10.160;2023-03-14T12:33:10;1.20;;;0.90;;
2474;SDS011;1248;48.694;10.160;2023-03-14T12:35:39;2.33;;;0.90;;
2474;SDS011;1248;48.694;10.160;2023-03-14T12:38:09;0.90;;;0.80;;
2474;SDS011;1248;48.694;10.160;2023-03-14T12:40:38;3.30;;;1.43;;
2474;SDS011;1248;48.694;10.160;2023-03-14T12:43:20;1.83;;;1.10;;
2474;SDS011;1248;48.694;10.160;2023-03-14T12:46:07;2.60;;;1.00;;
2474;SDS011;1248;48.694;10.160;2023-03-14T12:48:36;1.83;;;1.03;;
2474;SDS011;1248;48.694;10.160;2023-03-14T12:51:05;1.73;;;1.00;;
2474;SDS011;1248;48.694;10.160;2023-03-14T12:53:45;1.00;;;0.80;;
2474;SDS011;1248;48.694;10.160;2023-03-14T12:56:25;1.57;;;0.90;;
2474;SDS011;1248;48.694;10.160;2023-03-14T12:59:03;1.20;;;1.07;;
2474;SDS011;1248;48.694;10.160;2023-03-14T13:01:36;1.37;;;0.90;;
2474;SDS011;1248;48.694;10.160;2023-03-14T13:04:03;2.03;;;1.00;;
2474;SDS011;1248;48.694;10.160;2023-03-14T13:06:47;1.87;;;1.00;;
2474;SDS011;1248;48.694;10.160;2023-03-14T13:12:19;1.83;;;1.20;;
2474;SDS011;1248;48.694;10.160;2023-03-14T13:14:50;1.37;;;1.00;;
2474;SDS011;1248;48.694;10.160;2023-03-14T13:17:20;1.10;;;1.00;;
2474;SDS011;1248;48.694;10.160;2023-03-14T13:19:53;1.00;;;0.90;;
2474;SDS011;1248;48.694;10.160;2023-03-14T13:22:24;1.80;;;1.40;;
2474;SDS011;1248;48.694;10.160;2023-03-14T13:24:58;1.30;;;1.20;;
2474;SDS011;1248;48.694;10.160;2023-03-14T13:27:29;1.00;;;0.90;;
2474;SDS011;1248;48.694;10.160;2023-03-14T13:29:57;1.30;;;1.03;;
2474;SDS011;1248;48.694;10.160;2023-03-14T13:32:26;1.40;;;1.17;;
2474;SDS011;1248;48.694;10.160;2023-03-14T13:34:55;1.20;;;1.10;;
2474;SDS011;1248;48.694;10.160;2023-03-14T13:37:23;0.90;;;0.80;;
2474;SDS011;1248;48.694;10.160;2023-03-14T13:39:51;2.33;;;1.00;;
2474;SDS011;1248;48.694;10.160;2023-03-14T13:42:21;1.00;;;0.90;;
2474;SDS011;1248;48.694;10.160;2023-03-14T13:44:52;1.10;;;1.00;;
2474;SDS011;1248;48.694;10.160;2023-03-14T13:47:20;1.07;;;0.97;;
2474;SDS011;1248;48.694;10.160;2023-03-14T13:49:48;1.10;;;0.90;;
2474;SDS011;1248;48.694;10.160;2023-03-14T13:52:22;1.77;;;1.00;;
2474;SDS011;1248;48.694;10.160;2023-03-14T13:54:55;1.43;;;0.90;;
2474;SDS011;1248;48.694;10.160;2023-03-14T13:57:22;1.37;;;1.10;;
2474;SDS011;1248;48.694;10.160;2023-03-14T14:00:00;1.00;;;0.90;;
2474;SDS011;1248;48.694;10.160;2023-03-14T14:02:33;2.13;;;1.00;;
2474;SDS011;1248;48.694;10.160;2023-03-14T14:05:02;1.17;;;0.90;;
2474;SDS011;1248;48.694;10.160;2023-03-14T14:07:30;1.00;;;0.90;;
2474;SDS011;1248;48.694;10.160;2023-03-14T14:09:57;2.20;;;1.00;;
2474;SDS011;1248;48.694;10.160;2023-03-14T14:12:26;2.07;;;1.10;;
2474;SDS011;1248;48.694;10.160;2023-03-14T14:14:56;1.60;;;0.90;;
2474;SDS011;1248;48.694;10.160;2023-03-14T14:17:27;1.03;;;0.90;;
2474;SDS011;1248;48.694;10.160;2023-03-14T14:19:56;1.00;;;0.90;;
2474;SDS011;1248;48.694;10.160;2023-03-14T14:22:23;2.30;;;1.10;;
2474;SDS011;1248;48.694;10.160;2023-03-14T14:24:51;1.10;;;1.00;;
2474;SDS011;1248;48.694;10.160;2023-03-14T14:27:20;1.53;;;1.00;;
2474;SDS011;1248;48.694;10.160;2023-03-14T14:29:58;2.33;;;1.03;;
2474;SDS011;1248;48.694;10.160;2023-03-14T14:32:35;1.10;;;1.00;;
2474;SDS011;1248;48.694;10.160;2023-03-14T14:35:03;1.10;;;1.00;;
2474;SDS011;1248;48.694;10.160;2023-03-14T14:37:31;1.13;;;1.00;;
2474;SDS011;1248;48.694;10.160;2023-03-14T14:40:00;2.43;;;1.30;;
2474;SDS011;1248;48.694;10.160;2023-03-14T14:42:32;3.30;;;1.10;;
2474;SDS011;1248;48.694;10.160;2023-03-14T14:45:02;2.30;;;1.20;;
2474;SDS011;1248;48.694;10.160;2023-03-14T14:47:30;1.70;;;1.33;;
2474;SDS011;1248;48.694;10.160;2023-03-14T14:50:00;1.60;;;1.20;;
2474;SDS011;1248;48.694;10.160;2023-03-14T14:52:31;3.13;;;1.20;;
2474;SDS011;1248;48.694;10.160;2023-03-14T14:55:01;2.50;;;1.20;;
2474;SDS011;1248;48.694;10.160;2023-03-14T14:57:30;1.97;;;1.50;;
2474;SDS011;1248;48.694;10.160;2023-03-14T15:00:03;1.73;;;1.10;;
2474;SDS011;1248;48.694;10.160;2023-03-14T15:02:35;5.23;;;1.50;;
2474;SDS011;1248;48.694;10.160;2023-03-14T15:05:08;1.73;;;1.40;;
2474;SDS011;1248;48.694;10.160;2023-03-14T15:07:39;7.10;;;1.60;;
2474;SDS011;1248;48.694;10.160;2023-03-14T15:10:06;3.93;;;1.40;;
2474;SDS011;1248;48.694;10.160;2023-03-14T15:12:35;2.13;;;1.10;;
2474;SDS011;1248;48.694;10.160;2023-03-14T15:15:03;4.07;;;1.40;;
2474;SDS011;1248;48.694;10.160;2023-03-14T15:17:31;2.50;;;1.30;;